Latest Weather Observations for Dunalley

IDT60801

Issued at 9:01 am EST Wednesday 22 September 2021 (issued every 10 minutes, with the page automatically refreshed every 10 minutes)

About weather observations | Map of weather stations | Latest weather observations for TAS | Other Formats
Station Details ID: 094254 Name: DUNALLEY (STROUD POINT) Lat: -42.90 Lon: 147.79 Height: 12.43 m
Data from the previous 72 hours. | See also: Recent months at Dunalley
Date/Time
EST
Temp
°C
App
Temp
°C
Dew
Point
°C
Rel
Hum
%
Delta-T
°C
Wind Press
QNH
hPa
Press
MSL
hPa
Rain since
9am
mm
Dir  Spd
km/h
Gust
km/h
Spd
kts
Gust
kts
22/09:00am 17.7 12.7 6.6 48 5.5 WNW 22 35 12 19 1015.3 1015.3 0.0
22/08:30am 17.0 11.9 6.2 49 5.3 WNW 22 33 12 18 1015.2 1015.2 0.0
22/08:00am 16.2 10.8 6.3 52 4.8 WNW 24 35 13 19 1015.3 1015.3 0.0
22/07:30am 15.1 8.2 6.4 56 4.2 WNW 32 44 17 24 1015.0 1015.0 0.0
22/07:00am 14.3 7.8 6.4 59 3.8 WNW 30 43 16 23 1015.1 1015.1 0.0
22/06:30am 13.6 6.1 6.5 62 3.4 WNW 35 48 19 26 1014.8 1014.8 0.0
22/06:00am 13.0 6.5 6.4 64 3.1 NW 30 41 16 22 1014.9 1014.9 0.0
22/05:30am 12.9 6.4 6.7 66 3.0 NW 30 48 16 26 1014.9 1014.9 0.0
22/05:21am 13.0 6.9 6.8 66 3.0 NW 28 48 15 26 1014.9 1014.9 0.0
22/05:00am 12.6 7.6 6.6 67 2.9 NW 22 35 12 19 1015.0 1015.0 0.0
22/04:30am 12.5 6.4 6.5 67 2.9 WNW 28 41 15 22 1015.0 1015.0 0.0
22/04:00am 12.1 6.3 6.4 68 2.7 NW 26 35 14 19 1015.0 1015.0 0.0
22/03:30am 12.0 6.2 6.1 67 2.8 NW 26 35 14 19 1015.1 1015.1 0.0
22/03:00am 12.1 5.1 6.2 67 2.8 WNW 32 44 17 24 1015.1 1015.1 0.0
22/02:30am 12.1 5.5 6.2 67 2.8 NW 30 43 16 23 1015.3 1015.3 0.0
22/02:00am 11.6 5.3 5.9 68 2.7 NW 28 43 15 23 1015.6 1015.6 0.0
22/01:30am 11.5 5.2 5.6 67 2.7 NW 28 41 15 22 1015.9 1015.9 0.0
22/01:00am 11.3 5.3 5.4 67 2.7 NW 26 35 14 19 1016.2 1016.2 0.0
22/12:30am 10.9 6.6 5.2 68 2.6 NW 17 24 9 13 1016.5 1016.5 0.0
22/12:00am 11.2 6.3 5.3 67 2.7 WNW 20 32 11 17 1016.6 1016.6 0.0
 
Date/Time
EST
Temp
°C
App
Temp
°C
Dew
Point
°C
Rel
Hum
%
Delta-T
°C
Wind Press
QNH
hPa
Press
MSL
hPa
Rain since
9am
mm
Dir  Spd
km/h
Gust
km/h
Spd
kts
Gust
kts
21/11:30pm 11.2 6.3 5.3 67 2.7 WNW 20 30 11 16 1016.6 1016.6 0.0
21/11:00pm 11.1 6.8 5.4 68 2.6 WNW 17 24 9 13 1016.6 1016.6 0.0
21/10:30pm 11.4 6.7 5.3 66 2.8 WNW 19 26 10 14 1016.7 1016.7 0.0
21/10:00pm 11.3 5.6 5.0 65 2.9 WNW 24 33 13 18 1016.5 1016.5 0.0
21/09:30pm 11.4 6.7 5.1 65 2.9 WNW 19 32 10 17 1016.6 1016.6 0.0
21/09:00pm 11.6 6.3 5.0 64 3.0 WNW 22 32 12 17 1016.7 1016.7 0.0
21/08:30pm 12.2 5.7 4.9 61 3.3 WNW 28 37 15 20 1016.7 1016.7 0.0
21/08:00pm 12.2 6.5 5.1 62 3.3 WNW 24 32 13 17 1016.6 1016.6 0.0
21/07:30pm 12.3 6.2 5.0 61 3.4 WNW 26 35 14 19 1016.1 1016.1 0.0
21/07:00pm 12.3 6.2 5.0 61 3.4 WNW 26 37 14 20 1015.9 1015.9 0.0
21/06:30pm 12.4 5.9 4.6 59 3.6 WNW 28 39 15 21 1015.6 1015.6 0.0
21/06:00pm 12.4 6.3 4.6 59 3.6 WNW 26 35 14 19 1015.7 1015.7 0.0
21/05:30pm 12.4 6.6 4.6 59 3.6 WNW 24 32 13 17 1015.6 1015.6 0.0
21/05:00pm 12.9 7.0 4.1 55 4.0 WNW 24 32 13 17 1015.2 1015.2 0.0
21/04:30pm 13.4 7.2 4.3 54 4.2 WNW 26 35 14 19 1015.4 1015.4 0.0
21/04:00pm 13.0 7.2 4.4 56 3.9 WNW 24 35 13 19 1015.3 1015.3 0.0
21/03:30pm 12.9 6.7 4.1 55 4.0 W 26 37 14 20 1015.2 1015.2 0.0
21/03:00pm 12.9 6.6 3.8 54 4.1 W 26 39 14 21 1015.3 1015.3 0.0
21/02:30pm 13.0 7.1 3.7 53 4.2 W 24 33 13 18 1015.3 1015.3 0.0
21/02:00pm 13.0 7.0 3.4 52 4.3 W 24 32 13 17 1015.4 1015.4 0.0
21/01:30pm 12.3 6.2 3.0 53 4.1 W 24 35 13 19 1015.8 1015.8 0.0
21/01:00pm 12.2 6.1 2.6 52 4.2 W 24 33 13 18 1016.2 1016.2 0.0
21/12:30pm 11.8 4.9 2.3 52 4.1 W 28 35 15 19 1016.5 1016.5 0.0
21/12:00pm 11.1 3.5 2.7 56 3.6 W 32 37 17 20 1016.8 1016.8 0.0
21/11:30am 10.1 1.5 2.7 60 3.2 WSW 37 43 20 23 1017.1 1017.1 0.0
21/11:00am 9.5 0.6 3.0 64 2.8 WSW 39 46 21 25 1017.0 1017.0 0.0
21/10:30am 9.3 0.4 3.1 65 2.7 WSW 39 44 21 24 1017.1 1017.1 0.0
21/10:00am 8.9 1.2 2.5 64 2.7 W 32 39 17 21 1016.9 1016.9 0.0
21/09:30am 8.8 0.9 2.4 64 2.7 WSW 33 44 18 24 1016.9 1016.9 0.0
21/09:00am 8.9 1.3 2.7 65 2.6 WSW 32 37 17 20 1017.0 1017.0 6.6
21/08:30am 8.3 -0.7 2.3 66 2.5 WSW 39 44 21 24 1016.3 1016.3 6.6
21/08:00am 7.6 -0.7 2.3 69 2.2 W 35 43 19 23 1016.3 1016.3 6.6
21/07:30am 7.4 -2.5 2.5 71 2.0 WSW 44 52 24 28 1016.3 1016.3 6.6
21/07:00am 7.1 -1.9 2.2 71 2.0 WSW 39 48 21 26 1015.6 1015.6 6.6
21/06:30am 6.8 -1.5 1.9 71 2.0 WSW 35 44 19 24 1014.7 1014.7 6.6
21/06:00am 7.0 -1.7 2.3 72 1.9 WSW 37 43 20 23 1014.2 1014.2 6.6
21/05:30am 7.2 -1.8 2.7 73 1.9 WSW 39 46 21 25 1014.2 1014.2 6.6
21/05:00am 7.0 -1.6 2.7 74 1.8 WSW 37 43 20 23 1013.9 1013.9 6.6
21/04:30am 7.1 -3.1 3.2 76 1.6 WSW 46 61 25 33 1013.6 1013.6 6.6
21/04:00am 7.2 -1.9 3.8 79 1.5 WSW 41 52 22 28 1012.8 1012.8 6.6
21/03:30am 7.0 -2.5 4.1 82 1.2 SW 43 50 23 27 1012.6 1012.6 6.6
21/03:00am 7.0 -3.1 4.0 81 1.3 WSW 46 57 25 31 1011.9 1011.9 6.4
21/02:30am 7.0 -1.3 4.1 82 1.2 WSW 37 43 20 23 1011.9 1011.9 6.2
21/02:02am 7.3 -2.1 4.3 81 1.3 WSW 43 65 23 35 1011.4 1011.4 6.2
21/02:00am 7.3 -1.7 4.3 81 1.3 WSW 41 50 22 27 1011.4 1011.4 6.2
21/01:30am 7.2 -1.9 4.2 81 1.3 WSW 41 52 22 28 1011.4 1011.4 6.0
21/01:00am 7.2 -3.3 3.6 78 1.5 WSW 48 63 26 34 1010.9 1010.9 5.8
21/12:30am 7.3 -2.4 4.1 80 1.4 WSW 44 56 24 30 1010.3 1010.3 5.8
21/12:00am 7.6 -1.0 4.9 83 1.2 WSW 39 46 21 25 1009.9 1009.9 5.6
 
Date/Time
EST
Temp
°C
App
Temp
°C
Dew
Point
°C
Rel
Hum
%
Delta-T
°C
Wind Press
QNH
hPa
Press
MSL
hPa
Rain since
9am
mm
Dir  Spd
km/h
Gust
km/h
Spd
kts
Gust
kts
20/11:30pm 7.1 -2.3 4.2 82 1.3 SW 43 54 23 29 1009.5 1009.5 4.6
20/11:04pm 7.9 -2.7 5.0 82 1.3 WSW 50 70 27 38 1008.9 1008.9 3.8
20/11:00pm 8.2 -1.2 5.3 82 1.3 WSW 44 57 24 31 1008.9 1008.9 3.8
20/10:30pm 7.3 -2.0 5.0 85 1.0 SW 43 56 23 30 1008.7 1008.7 3.8
20/10:01pm 6.9 -3.4 4.6 85 1.0 SW 48 67 26 36 1008.0 1008.0 2.4
20/10:00pm 7.1 -3.6 4.8 85 1.0 SW 50 67 27 36 1008.0 1008.0 2.4
20/09:56pm 7.2 -3.1 4.7 84 1.1 WSW 48 67 26 36 1007.9 1007.9 2.0
20/09:30pm 8.1 -0.4 5.2 82 1.3 WSW 39 46 21 25 1007.4 1007.4 0.6
20/09:00pm 7.6 -2.4 4.4 80 1.4 WSW 46 61 25 33 1006.7 1006.7 0.6
20/08:30pm 8.6 -1.8 4.0 73 2.0 WSW 48 57 26 31 1006.2 1006.2 0.0
20/08:00pm 8.7 -2.6 3.7 71 2.2 WSW 52 67 28 36 1005.1 1005.1 0.0
20/07:58pm 9.0 -2.2 4.0 71 2.2 WSW 52 67 28 36 1005.0 1005.0 0.0
20/07:30pm 9.0 0.3 4.0 71 2.2 WSW 39 46 21 25 1004.6 1004.6 0.0
20/07:00pm 8.9 -0.6 3.9 71 2.2 WSW 43 50 23 27 1003.8 1003.8 0.0
20/06:30pm 9.0 -0.1 3.8 70 2.3 WSW 41 50 22 27 1003.2 1003.2 0.0
20/06:00pm 9.2 -0.4 3.4 67 2.5 WSW 43 52 23 28 1002.6 1002.6 0.0
20/05:30pm 9.3 -1.2 3.5 67 2.5 WSW 48 56 26 30 1001.6 1001.6 0.0
20/05:00pm 9.6 -1.2 4.0 68 2.5 W 50 59 27 32 1000.8 1000.8 0.0
20/04:30pm 9.2 -1.7 3.4 67 2.5 W 50 61 27 33 1000.1 1000.1 0.0
20/04:00pm 10.2 0.6 4.4 67 2.6 WSW 44 54 24 29 999.6 999.6 0.0
20/03:30pm 10.7 2.2 3.3 60 3.2 W 37 46 20 25 999.2 999.2 0.0
20/03:00pm 10.9 1.1 2.5 56 3.6 W 43 52 23 28 998.6 998.6 0.0
20/02:30pm 11.2 1.4 2.2 54 3.8 W 43 57 23 31 998.0 998.0 0.0
20/02:00pm 11.8 1.3 1.7 50 4.3 W 46 59 25 32 997.6 997.6 0.0
20/01:30pm 11.4 1.9 1.6 51 4.1 W 41 52 22 28 997.6 997.6 0.0
20/01:00pm 11.9 3.7 2.9 54 4.0 WNW 35 57 19 31 997.5 997.5 0.0
20/12:58pm 11.6 3.0 2.6 54 3.9 WNW 37 57 20 31 997.6 997.6 0.0
20/12:30pm 11.6 2.6 2.6 54 3.9 W 39 54 21 29 997.8 997.8 0.0
20/12:00pm 11.3 2.6 1.8 52 4.1 W 37 48 20 26 997.9 997.9 0.0
20/11:30am 12.1 3.9 2.6 52 4.1 WNW 35 46 19 25 998.0 998.0 0.0
20/11:00am 10.7 2.8 2.5 57 3.5 WNW 33 46 18 25 997.9 997.9 0.0
20/10:30am 10.4 2.6 3.0 60 3.2 W 33 41 18 22 998.1 998.1 0.0
20/10:00am 10.7 4.9 4.2 64 2.9 W 24 33 13 18 998.3 998.3 0.0
20/09:30am 9.1 0.1 2.7 64 2.7 W 39 48 21 26 998.2 998.2 0.0
20/09:19am 9.8 1.7 3.1 63 2.9 W 35 48 19 26 997.8 997.8 0.0
20/09:00am 9.8 2.2 3.1 63 2.9 WNW 32 44 17 24 997.4 997.4 0.0
20/08:30am 9.6 2.0 2.9 63 2.9 WNW 32 48 17 26 997.1 997.1 0.0
20/08:00am 9.3 2.0 2.6 63 2.9 WNW 30 44 16 24 996.7 996.7 0.0
20/07:30am 8.9 2.0 2.3 63 2.8 WNW 28 37 15 20 996.5 996.5 0.0
20/07:20am 8.9 2.0 2.3 63 2.8 WNW 28 46 15 25 996.4 996.4 0.0
20/07:00am 8.7 2.9 2.3 64 2.7 WNW 22 32 12 17 996.0 996.0 0.0
20/06:30am 8.1 1.1 2.1 66 2.5 WNW 28 39 15 21 995.9 995.9 0.0
20/06:00am 8.0 2.1 1.8 65 2.6 NW 22 48 12 26 995.6 995.6 0.0
20/05:30am 8.0 2.4 1.4 63 2.7 WNW 20 30 11 16 995.9 995.9 0.0
20/05:00am 8.0 3.3 1.0 61 2.8 WNW 15 24 8 13 996.0 996.0 0.0
20/04:30am 8.1 3.4 0.8 60 2.9 NW 15 22 8 12 996.0 996.0 0.0
20/04:00am 8.7 2.3 1.1 59 3.1 NW 24 32 13 17 996.0 996.0 0.0
20/03:34am 8.7 1.2 1.1 59 3.1 NW 30 50 16 27 996.2 996.2 0.0
20/03:30am 8.8 0.7 1.2 59 3.1 NW 33 50 18 27 996.2 996.2 0.0
20/03:24am 9.0 1.9 1.2 58 3.2 WNW 28 48 15 26 996.6 996.6 0.0
20/03:00am 8.8 2.8 1.0 58 3.2 NW 22 39 12 21 996.7 996.7 0.0
20/02:30am 8.6 2.9 0.8 58 3.1 WNW 20 35 11 19 997.0 997.0 0.0
20/02:00am 9.0 2.2 1.0 57 3.3 NW 26 39 14 21 997.1 997.1 0.0
20/01:35am 9.0 1.8 0.5 55 3.4 NW 28 48 15 26 997.5 997.5 0.0
20/01:30am 9.2 2.0 0.4 54 3.5 NW 28 39 15 21 997.6 997.6 0.0
20/01:00am 9.2 1.6 0.6 55 3.5 NW 30 43 16 23 998.0 998.0 0.0
20/12:42am 9.4 1.5 1.1 56 3.4 WNW 32 52 17 28 998.1 998.1 0.0
20/12:30am 9.6 0.7 1.0 55 3.5 NW 37 54 20 29 998.0 998.0 0.0
20/12:22am 9.7 1.6 0.9 54 3.6 WNW 33 54 18 29 998.0 998.0 0.0
20/12:00am 9.9 1.4 0.8 53 3.8 NW 35 52 19 28 998.2 998.2 0.0
 
Date/Time
EST
Temp
°C
App
Temp
°C
Dew
Point
°C
Rel
Hum
%
Delta-T
°C
Wind Press
QNH
hPa
Press
MSL
hPa
Rain since
9am
mm
Dir  Spd
km/h
Gust
km/h
Spd
kts
Gust
kts
19/11:56pm 9.8 1.7 0.9 54 3.6 NW 33 52 18 28 998.3 998.3 0.0
19/11:30pm 9.9 1.9 0.5 52 3.8 NW 32 43 17 23 998.6 998.6 0.0
19/11:00pm 9.8 3.0 0.7 53 3.7 NW 26 43 14 23 998.7 998.7 0.0
19/10:30pm 9.7 3.6 0.6 53 3.7 NW 22 32 12 17 998.9 998.9 0.0
19/10:00pm 9.4 2.6 0.8 55 3.5 WNW 26 35 14 19 999.0 999.0 0.0
19/09:30pm 8.4 3.7 0.9 59 3.0 NW 15 20 8 11 999.7 999.7 0.0
19/09:00pm 8.5 4.2 1.2 60 3.0 NW 13 19 7 10 1000.3 1000.3 0.0
19/08:30pm 9.1 2.4 1.3 58 3.2 WNW 26 35 14 19 1000.0 1000.0 0.0
19/08:00pm 9.8 1.1 1.7 57 3.4 WNW 37 50 20 27 999.9 999.9 0.0
19/07:50pm 9.7 2.6 1.4 56 3.4 NW 28 52 15 28 999.9 999.9 0.0
19/07:30pm 9.6 3.3 1.3 56 3.4 NW 24 37 13 20 999.6 999.6 0.0
19/07:00pm 10.4 3.8 4.3 66 2.7 WNW 28 44 15 24 999.3 999.3 0.0
19/06:30pm 9.7 0.1 4.5 70 2.3 W 44 70 24 38 999.2 999.2 0.0
19/06:26pm 9.7 -0.7 4.1 68 2.5 W 48 70 26 38 999.3 999.3 0.0
19/06:21pm 10.9 1.8 4.1 63 3.0 W 41 65 22 35 998.9 998.9 0.0
19/06:02pm 13.0 6.0 4.2 55 4.0 WNW 30 48 16 26 998.4 998.4 0.0
19/06:00pm 13.0 5.6 4.2 55 4.0 WNW 32 48 17 26 998.4 998.4 0.0
19/05:40pm 13.8 6.2 4.1 52 4.4 WNW 33 59 18 32 998.1 998.1 0.0
19/05:30pm 13.8 5.9 4.4 53 4.3 W 35 48 19 26 998.0 998.0 0.0
19/05:00pm 14.6 6.3 4.3 50 4.8 WNW 37 59 20 32 997.5 997.5 0.0
19/04:30pm 14.9 6.6 4.3 49 4.9 NW 37 59 20 32 997.2 997.2 0.0
19/04:07pm 15.6 6.7 4.9 49 5.0 WNW 41 61 22 33 997.1 997.1 0.0
19/04:00pm 15.5 6.2 4.8 49 5.1 WNW 43 61 23 33 997.1 997.1 0.0
19/03:53pm 15.7 9.4 5.6 51 4.8 WNW 28 57 15 31 997.2 997.2 0.0
19/03:30pm 14.4 7.9 6.7 60 3.7 W 30 43 16 23 997.3 997.3 0.0
19/03:09pm 16.2 7.3 4.9 47 5.3 WNW 41 63 22 34 997.2 997.2 0.0
19/03:00pm 16.9 7.6 5.2 46 5.6 WNW 43 57 23 31 997.3 997.3 0.0
19/02:30pm 16.9 6.2 4.6 44 5.8 WNW 50 69 27 37 996.7 996.7 0.0
19/02:09pm 17.1 6.9 5.4 46 5.6 WNW 48 70 26 38 996.8 996.8 0.0
19/02:00pm 17.5 6.9 5.1 44 6.0 WNW 50 69 27 37 996.9 996.9 0.0
19/01:30pm 18.2 10.3 6.1 45 6.0 WNW 37 59 20 32 997.0 997.0 0.0
19/01:03pm 17.6 10.2 6.8 49 5.4 WNW 35 54 19 29 997.0 997.0 0.0
19/01:00pm 17.5 9.8 7.0 50 5.3 WNW 37 54 20 29 997.1 997.1 0.0
19/12:30pm 17.1 7.1 6.3 49 5.3 WNW 48 76 26 41 997.7 997.7 0.0
19/12:00pm 17.5 8.4 6.7 49 5.4 WNW 44 63 24 34 998.0 998.0 0.0
19/11:30am 17.4 8.7 6.0 47 5.6 NW 41 63 22 34 998.4 998.4 0.0
19/11:00am 17.9 10.7 5.8 45 5.9 NW 33 63 18 34 998.7 998.7 0.0
19/10:32am 17.0 10.3 5.6 47 5.5 NW 30 48 16 26 998.8 998.8 0.0
19/10:30am 16.6 9.8 5.3 47 5.4 NW 30 44 16 24 998.9 998.9 0.0
19/10:00am 16.4 8.6 5.1 47 5.4 NW 35 50 19 27 999.3 999.3 0.0
19/09:39am 16.2 9.7 4.9 47 5.3 NW 28 50 15 27 999.1 999.1 0.0
19/09:30am 16.2 10.9 5.2 48 5.2 NNW 22 37 12 20 999.3 999.3 0.0

Other formats

Comma delimited format used in spreadsheet applications
http://www.bom.gov.au/fwo/IDT60801/IDT60801.94951.axf

JavaScript Object Notation format (JSON) in row-major order
http://www.bom.gov.au/fwo/IDT60801/IDT60801.94951.json

Data quality

Most of these data are generated automatically and are frequently updated. Quality checks on data are not normally performed. It is possible for incorrect values to appear. Refer to information at About Latest Weather Observations and please check the disclaimer before using these data.